EGJA - Alderney / Channel Island
Distance from station: E 5mi, 14km
Updated: 07/21/2018 6:20am
Few Clouds
Few Clouds
 Wind from varies
Wind: varies 3 mph , 6 km/h
Temperature: 70°F , 21°C
Dew Point: 57°F , 14°C
Humidity: 64%
Barometer: 29.97 inHg , 1015 hPa
Clouds: Few Clouds
Visibility: 6 miles , 10 km
Cloud details: Few Clouds 1600 ft
2018/07/21 13:20 EGJA 211320Z VRB03KT 9999 FEW016 21/14 Q1015